Maersk Missouri — WAHV — position and weather

sailwx.info

Track history (hours):
 
Tides and Currents Weather Stations Pressure Air Temp Water Temp Dewpoint Dewpoint Depression Visibility Wind Speed Wind Dir Waves Ship Positions

Maersk Missouri

Owner: MAERSK LINE, LIMITED, Norfolk, VA. More information available from US FCC via Universal Licensing System and Coast Guard Vessel Documentation Center.

Last reported at 2015-Jul-06 12:00 UTC. Time now 2015-Jul-07 06:44 UTC.
Position N 26°30' W 090°18'.

Type: Cargo ship. MMSI: 369708000.

Wind from 180 at 15 knots

Waves 0.5 meters (2 feet), 2 second period

Barometer 1021.7 mb
Air temperature 29.0 ° C
Visibility: greater than 5.4 NM
Dewpoint 23.2 ° C
Water temperature 29.3 ° C

Date/timePositionNaut miles runAvg speedWind from/ knotsBaromVisibWave heightAir tempDewpointWater temp
2015-Jul-06 12:00N 26°30' W 090°18'29417.9 180 / 151021.7 5.4 0.529.023.229.3
2015-Jul-05 19:33N 29°22' W 094°48'1312.6
2015-Jul-05 18:33N 29°33' W 094°55'9 8.8
2015-Jul-05 17:33N 29°41' W 094°60'1 0.5
2015-Jul-05 16:33N 29°41' W 095°00'0 0.0
2015-Jul-05 15:33N 29°41' W 095°00'0 0.0
2015-Jul-05 14:31N 29°41' W 095°00'0 0.0
2015-Jul-05 13:31N 29°41' W 095°00'0 0.0
2015-Jul-05 12:32N 29°41' W 095°00'0 0.0
2015-Jul-05 11:33N 29°41' W 095°00'0 0.0
2015-Jul-05 10:33N 29°41' W 095°00'0 0.0
2015-Jul-05 09:31N 29°41' W 095°00'0 0.0
2015-Jul-05 08:31N 29°41' W 095°00'0 0.0
2015-Jul-05 07:32N 29°41' W 095°00'0 0.0
2015-Jul-05 06:33N 29°41' W 095°00'0 0.0
2015-Jul-05 05:33N 29°41' W 095°00'0 0.0
2015-Jul-05 04:31N 29°41' W 095°00'0 0.0
2015-Jul-05 03:31N 29°41' W 095°00'0 0.0
2015-Jul-05 02:29N 29°41' W 095°00'0 0.0
2015-Jul-05 01:32N 29°41' W 095°00'0 0.0
2015-Jul-05 00:33N 29°41' W 095°00'0 0.0
2015-Jul-04 23:31N 29°41' W 095°00'0 0.0
2015-Jul-04 22:31N 29°41' W 095°00'0 0.0
2015-Jul-04 21:32N 29°41' W 095°00'0 0.0
2015-Jul-04 20:29N 29°41' W 095°00'0 0.0
2015-Jul-04 19:27N 29°41' W 095°00'0 0.0
2015-Jul-04 18:31N 29°41' W 095°00'0 0.0
2015-Jul-04 17:31N 29°41' W 095°00'0 0.0
2015-Jul-04 16:29N 29°41' W 095°00'0 0.0
2015-Jul-04 15:32N 29°41' W 095°00'0 0.0
2015-Jul-04 14:33N 29°41' W 095°00'0 0.0
2015-Jul-04 13:31N 29°41' W 095°00'0 0.0
2015-Jul-04 12:31N 29°41' W 095°00'0 0.0
2015-Jul-04 11:32N 29°41' W 095°00'0 0.0
2015-Jul-04 10:33N 29°41' W 095°00'6 5.8
2015-Jul-04 09:33N 29°36' W 094°57'1312.5
2015-Jul-04 08:33N 29°25' W 094°50'44316.7
2015-Jul-03 06:00N 25°36' W 087°42'31417.5 140 / 141021.010.8 0.528.025.230.0
2015-Jul-02 12:00N 24°18' W 082°06'13815.8 1021.0 0.530.025.830.0
2015-Jul-02 03:14N 25°38' W 080°02'811.8
2015-Jul-02 02:34N 25°46' W 080°06'3 0.2
2015-Jul-01 11:32N 25°46' W 080°10'6 6.2
2015-Jul-01 10:33N 25°47' W 080°03'3 3.2
2015-Jul-01 09:33N 25°50' W 080°02'9 9.0
2015-Jul-01 08:33N 25°59' W 079°58'8 8.0
2015-Jul-01 07:33N 26°07' W 079°59'9 8.7
2015-Jul-01 06:33N 26°15' W 079°59'9 8.7
2015-Jul-01 05:33N 26°24' W 079°58'9 9.3
2015-Jul-01 04:33N 26°34' W 079°59'1010.5
2015-Jul-01 03:33N 26°44' W 079°58'1010.2
2015-Jul-01 02:33N 26°54' W 079°58'9 9.2
2015-Jul-01 01:33N 27°03' W 079°58'27112.8
2015-Jun-30 04:23N 31°35' W 079°54'1213.8
2015-Jun-30 03:29N 31°47' W 079°51'64 4.5
2015-Jun-29 13:14N 32°50' W 079°53'0 0.0
2015-Jun-29 12:11N 32°50' W 079°53'0 0.0
2015-Jun-29 11:27N 32°50' W 079°53'1 1.5
2015-Jun-29 10:32N 32°49' W 079°54'20210.0
2015-Jun-28 14:22N 34°20' W 076°18'15163.4
2015-Jun-28 12:00N 35°54' W 073°54'99 8.3 250 / 221012.8 5.4 2.0
2015-Jun-28 00:00N 36°42' W 075°42'   230 / 201020.9 5.4 1.026.023.125.0
Track history (hours):
 
Tides and Currents Weather Stations Pressure Air Temp Water Temp Dewpoint Dewpoint Depression Visibility Wind Speed Wind Dir Waves Ship Positions

Maersk Missouri

Owner: MAERSK LINE, LIMITED, Norfolk, VA. More information available from US FCC via Universal Licensing System and Coast Guard Vessel Documentation Center.

Last reported at 2015-Jul-06 12:00 UTC. Time now 2015-Jul-07 06:44 UTC.
Position N 26°30' W 090°18'.

Type: Cargo ship. MMSI: 369708000.

Wind from 180 at 15 knots

Waves 0.5 meters (2 feet), 2 second period

Barometer 1021.7 mb
Air temperature 29.0 ° C
Visibility: greater than 5.4 NM
Dewpoint 23.2 ° C
Water temperature 29.3 ° C

Date/timePositionNaut miles runAvg speedWind from/ knotsBaromVisibWave heightAir tempDewpointWater temp
2015-Jul-06 12:00N 26°30' W 090°18'29417.9 180 / 151021.7 5.4 0.529.023.229.3
2015-Jul-05 19:33N 29°22' W 094°48'1312.6
2015-Jul-05 18:33N 29°33' W 094°55'9 8.8
2015-Jul-05 17:33N 29°41' W 094°60'1 0.5
2015-Jul-05 16:33N 29°41' W 095°00'0 0.0
2015-Jul-05 15:33N 29°41' W 095°00'0 0.0
2015-Jul-05 14:31N 29°41' W 095°00'0 0.0
2015-Jul-05 13:31N 29°41' W 095°00'0 0.0
2015-Jul-05 12:32N 29°41' W 095°00'0 0.0
2015-Jul-05 11:33N 29°41' W 095°00'0 0.0
2015-Jul-05 10:33N 29°41' W 095°00'0 0.0
2015-Jul-05 09:31N 29°41' W 095°00'0 0.0
2015-Jul-05 08:31N 29°41' W 095°00'0 0.0
2015-Jul-05 07:32N 29°41' W 095°00'0 0.0
2015-Jul-05 06:33N 29°41' W 095°00'0 0.0
2015-Jul-05 05:33N 29°41' W 095°00'0 0.0
2015-Jul-05 04:31N 29°41' W 095°00'0 0.0
2015-Jul-05 03:31N 29°41' W 095°00'0 0.0
2015-Jul-05 02:29N 29°41' W 095°00'0 0.0
2015-Jul-05 01:32N 29°41' W 095°00'0 0.0
2015-Jul-05 00:33N 29°41' W 095°00'0 0.0
2015-Jul-04 23:31N 29°41' W 095°00'0 0.0
2015-Jul-04 22:31N 29°41' W 095°00'0 0.0
2015-Jul-04 21:32N 29°41' W 095°00'0 0.0
2015-Jul-04 20:29N 29°41' W 095°00'0 0.0
2015-Jul-04 19:27N 29°41' W 095°00'0 0.0
2015-Jul-04 18:31N 29°41' W 095°00'0 0.0
2015-Jul-04 17:31N 29°41' W 095°00'0 0.0
2015-Jul-04 16:29N 29°41' W 095°00'0 0.0
2015-Jul-04 15:32N 29°41' W 095°00'0 0.0
2015-Jul-04 14:33N 29°41' W 095°00'0 0.0
2015-Jul-04 13:31N 29°41' W 095°00'0 0.0
2015-Jul-04 12:31N 29°41' W 095°00'0 0.0
2015-Jul-04 11:32N 29°41' W 095°00'0 0.0
2015-Jul-04 10:33N 29°41' W 095°00'6 5.8
2015-Jul-04 09:33N 29°36' W 094°57'1312.5
2015-Jul-04 08:33N 29°25' W 094°50'44316.7
2015-Jul-03 06:00N 25°36' W 087°42'31417.5 140 / 141021.010.8 0.528.025.230.0
2015-Jul-02 12:00N 24°18' W 082°06'13815.8 1021.0 0.530.025.830.0
2015-Jul-02 03:14N 25°38' W 080°02'811.8
2015-Jul-02 02:34N 25°46' W 080°06'3 0.2
2015-Jul-01 11:32N 25°46' W 080°10'6 6.2
2015-Jul-01 10:33N 25°47' W 080°03'3 3.2
2015-Jul-01 09:33N 25°50' W 080°02'9 9.0
2015-Jul-01 08:33N 25°59' W 079°58'8 8.0
2015-Jul-01 07:33N 26°07' W 079°59'9 8.7
2015-Jul-01 06:33N 26°15' W 079°59'9 8.7
2015-Jul-01 05:33N 26°24' W 079°58'9 9.3
2015-Jul-01 04:33N 26°34' W 079°59'1010.5
2015-Jul-01 03:33N 26°44' W 079°58'1010.2
2015-Jul-01 02:33N 26°54' W 079°58'9 9.2
2015-Jul-01 01:33N 27°03' W 079°58'27112.8
2015-Jun-30 04:23N 31°35' W 079°54'1213.8
2015-Jun-30 03:29N 31°47' W 079°51'64 4.5
2015-Jun-29 13:14N 32°50' W 079°53'0 0.0
2015-Jun-29 12:11N 32°50' W 079°53'0 0.0
2015-Jun-29 11:27N 32°50' W 079°53'1 1.5
2015-Jun-29 10:32N 32°49' W 079°54'20210.0
2015-Jun-28 14:22N 34°20' W 076°18'15163.4
2015-Jun-28 12:00N 35°54' W 073°54'99 8.3 250 / 221012.8 5.4 2.0
2015-Jun-28 00:00N 36°42' W 075°42'   230 / 201020.9 5.4 1.026.023.125.0

Dump ship's entire track history